createdAt,value
2018-04-15T00:02:11.964Z,98105.63
2018-04-15T00:04:40.314Z,98110.74
2018-04-15T00:07:08.602Z,98110.64
2018-04-15T00:09:37.003Z,98110.18
2018-04-15T00:12:05.340Z,98105.72
2018-04-15T00:14:33.631Z,98100.10
2018-04-15T00:17:01.911Z,98101.80
2018-04-15T00:19:30.219Z,98094.56
2018-04-15T00:21:58.508Z,98091.86
2018-04-15T00:24:27.519Z,98083.34
2018-04-15T00:26:55.818Z,98084.67
2018-04-15T00:29:24.287Z,98085.20
2018-04-15T00:31:52.623Z,98089.01
2018-04-15T00:34:23.670Z,98090.01
2018-04-15T00:36:52.358Z,98092.89
2018-04-15T00:39:22.094Z,98086.52
2018-04-15T00:41:50.393Z,98080.75
2018-04-15T00:44:18.715Z,98077.98
2018-04-15T00:46:47.011Z,98077.67
2018-04-15T00:49:15.859Z,98077.20
2018-04-15T00:51:44.274Z,98079.34
2018-04-15T00:54:18.437Z,98072.70
2018-04-15T00:56:46.729Z,98071.59
2018-04-15T00:59:15.011Z,98076.03
2018-04-15T01:01:43.330Z,98071.02
2018-04-15T01:04:12.379Z,98068.87
2018-04-15T01:06:41.182Z,98074.65
2018-04-15T01:09:09.604Z,98069.47
2018-04-15T01:11:37.993Z,98068.69
2018-04-15T01:14:06.318Z,98072.25
2018-04-15T01:16:34.609Z,98070.66
2018-04-15T01:19:03.377Z,98065.25
2018-04-15T01:21:31.787Z,98069.41
2018-04-15T01:24:00.161Z,98071.20
2018-04-15T01:26:28.446Z,98072.19
2018-04-15T01:28:56.759Z,98071.59
2018-04-15T01:31:25.044Z,98068.70
2018-04-15T01:33:53.536Z,98076.31
2018-04-15T01:36:22.122Z,98079.67
2018-04-15T01:38:50.720Z,98074.66
2018-04-15T01:41:19.839Z,98078.47
2018-04-15T01:43:49.046Z,98097.44
2018-04-15T01:46:17.567Z,98093.83
2018-04-15T01:48:45.933Z,98099.57
2018-04-15T01:51:14.223Z,98099.28
2018-04-15T01:53:42.518Z,98097.86
2018-04-15T01:56:10.827Z,98098.14
2018-04-15T01:58:39.167Z,98097.70
2018-04-15T02:01:07.443Z,98099.14
2018-04-15T02:03:35.731Z,98105.91
2018-04-15T02:06:04.038Z,98104.30
2018-04-15T02:08:32.323Z,98103.82
2018-04-15T02:11:00.611Z,98103.99
2018-04-15T02:13:29.053Z,98106.44
2018-04-15T02:15:58.055Z,98109.41
2018-04-15T02:18:26.340Z,98106.19
2018-04-15T02:20:54.791Z,98110.86
2018-04-15T02:23:23.580Z,98103.33
2018-04-15T02:25:51.870Z,98105.38
2018-04-15T02:28:20.295Z,98102.20
2018-04-15T02:30:48.590Z,98097.92
2018-04-15T02:33:17.092Z,98095.11
2018-04-15T02:35:45.427Z,98093.19
2018-04-15T02:38:13.880Z,98090.11
2018-04-15T02:40:42.944Z,98084.88
2018-04-15T02:43:12.896Z,98077.52
2018-04-15T02:45:41.857Z,98069.70
2018-04-15T02:48:10.195Z,98067.52
2018-04-15T02:50:38.485Z,98055.67
2018-04-15T02:53:06.916Z,98056.62
2018-04-15T02:55:35.210Z,98058.08
2018-04-15T02:58:03.550Z,98051.31
2018-04-15T03:00:31.871Z,98048.13
2018-04-15T03:03:00.155Z,98050.91
2018-04-15T03:05:28.451Z,98047.98
2018-04-15T03:07:56.794Z,98049.89
2018-04-15T03:10:25.075Z,98040.61
2018-04-15T03:12:53.367Z,98040.23
2018-04-15T03:15:21.688Z,98036.42
2018-04-15T03:17:50.128Z,98034.33
2018-04-15T03:20:18.756Z,98031.70
2018-04-15T03:22:47.075Z,98033.53
2018-04-15T03:25:15.355Z,98034.24
2018-04-15T03:27:43.777Z,98037.17
2018-04-15T03:30:12.095Z,98038.91
2018-04-15T03:32:40.376Z,98045.53
2018-04-15T03:35:08.719Z,98040.17
2018-04-15T03:37:37.583Z,98035.48
2018-04-15T03:40:05.888Z,98034.24
2018-04-15T03:42:34.195Z,98028.98
2018-04-15T03:45:02.479Z,98030.45
2018-04-15T03:47:31.687Z,98029.97
2018-04-15T03:50:01.419Z,98030.77
2018-04-15T03:52:29.701Z,98027.44
2018-04-15T03:54:58.031Z,98024.92
2018-04-15T03:57:26.318Z,98018.20
2018-04-15T03:59:55.482Z,98017.58
2018-04-15T04:02:23.801Z,98014.97
2018-04-15T04:04:52.743Z,98011.49
2018-04-15T04:07:21.082Z,98007.64
2018-04-15T04:09:49.366Z,98000.76
2018-04-15T04:12:17.663Z,97997.36
2018-04-15T04:14:46.003Z,97997.36
2018-04-15T04:17:14.288Z,97998.22
2018-04-15T04:20:00.251Z,97991.59
2018-04-15T04:22:45.993Z,97997.84
2018-04-15T04:38:50.844Z,98007.77
2018-04-15T04:41:19.215Z,98005.89
2018-04-15T04:43:47.623Z,97999.80
2018-04-15T04:46:16.491Z,97994.83
2018-04-15T04:48:44.780Z,97996.50
2018-04-15T04:51:13.059Z,97995.53
2018-04-15T04:53:41.379Z,97996.86
2018-04-15T04:56:10.056Z,97994.13
2018-04-15T04:58:38.338Z,97992.48
2018-04-15T05:01:07.112Z,98001.23
2018-04-15T05:03:36.059Z,98002.80
2018-04-15T05:06:04.343Z,98008.11
2018-04-15T05:08:32.651Z,98008.33
2018-04-15T05:11:00.935Z,98009.77
2018-04-15T05:13:29.219Z,98009.48
2018-04-15T05:15:57.728Z,98014.86
2018-04-15T05:18:26.650Z,98019.59
2018-04-15T05:20:55.050Z,98022.13
2018-04-15T05:23:23.395Z,98016.47
2018-04-15T05:25:51.683Z,98011.75
2018-04-15T05:28:19.971Z,98013.31
2018-04-15T05:30:48.290Z,98019.01
2018-04-15T05:33:16.571Z,98015.89
2018-04-15T05:35:44.847Z,98026.97
2018-04-15T05:38:13.563Z,98027.42
2018-04-15T05:40:42.378Z,98025.37
2018-04-15T05:43:10.735Z,98022.32
2018-04-15T05:45:39.071Z,98019.86
2018-04-15T05:48:07.375Z,98016.97
2018-04-15T05:50:35.671Z,98015.86
2018-04-15T05:53:04.091Z,98013.11
2018-04-15T05:55:32.382Z,98018.97
2018-04-15T05:58:00.705Z,98019.62
2018-04-15T06:00:28.999Z,98016.28
2018-04-15T06:02:57.390Z,98013.17
2018-04-15T06:05:25.711Z,98010.41
2018-04-15T06:07:54.024Z,98010.20
2018-04-15T06:10:22.332Z,98003.72
2018-04-15T06:12:52.222Z,97994.05
2018-04-15T06:15:20.503Z,97996.77
2018-04-15T06:17:48.795Z,97998.23
2018-04-15T06:20:17.130Z,98004.41
2018-04-15T06:22:46.119Z,98007.67
2018-04-15T06:25:14.410Z,98003.21
2018-04-15T06:27:42.711Z,98005.11
2018-04-15T06:30:11.048Z,97999.62
2018-04-15T06:32:39.352Z,97999.80
2018-04-15T06:35:07.660Z,98002.77
2018-04-15T06:37:37.089Z,98002.84
2018-04-15T06:40:05.628Z,97995.34
2018-04-15T06:42:33.918Z,97998.83
2018-04-15T06:45:02.326Z,97997.09
2018-04-15T06:47:30.619Z,97997.42
2018-04-15T06:49:59.671Z,98002.16
2018-04-15T06:52:29.259Z,98005.14
2018-04-15T06:54:57.676Z,98007.20
2018-04-15T06:57:26.011Z,98004.27
2018-04-15T06:59:54.291Z,98012.52
2018-04-15T07:02:23.175Z,98007.62
2018-04-15T07:04:51.506Z,98008.66
2018-04-15T07:07:19.834Z,98006.25
2018-04-15T07:09:48.131Z,97994.14
2018-04-15T07:12:17.224Z,98000.83
2018-04-15T07:14:45.517Z,97995.31
2018-04-15T07:17:13.806Z,97998.16
2018-04-15T07:19:42.146Z,97996.23
2018-04-15T07:22:10.443Z,97992.51
2018-04-15T07:24:38.724Z,97995.14
2018-04-15T07:27:07.059Z,97980.70
2018-04-15T07:29:35.339Z,97982.16
2018-04-15T07:32:03.623Z,97979.75
2018-04-15T07:34:32.223Z,97966.15
2018-04-15T07:37:00.514Z,97972.14
2018-04-15T07:39:28.803Z,97967.97
2018-04-15T07:41:57.144Z,97963.13
2018-04-15T07:44:25.472Z,97962.02
2018-04-15T07:46:53.749Z,97953.18
2018-04-15T07:49:22.074Z,97944.03
2018-04-15T07:51:50.367Z,97941.50
2018-04-15T07:54:18.692Z,97937.48
2018-04-15T07:56:46.987Z,97938.41
2018-04-15T07:59:15.991Z,97939.16
2018-04-15T08:01:44.316Z,97936.65
2018-04-15T08:04:12.616Z,97937.24
2018-04-15T08:06:40.957Z,97928.59
2018-04-15T08:09:09.259Z,97934.41
2018-04-15T08:11:37.765Z,97933.66
2018-04-15T08:14:06.123Z,97935.80
2018-04-15T08:16:34.458Z,97938.72
2018-04-15T08:19:02.780Z,97939.77
2018-04-15T08:21:31.068Z,97944.08
2018-04-15T08:23:59.571Z,97942.57
2018-04-15T08:26:27.872Z,97946.48
2018-04-15T08:28:56.160Z,97948.72
2018-04-15T08:31:24.478Z,97938.94
2018-04-15T08:33:52.775Z,97933.89
2018-04-15T08:36:21.331Z,97939.30
2018-04-15T08:38:50.147Z,97937.55
2018-04-15T08:41:18.443Z,97928.70
2018-04-15T08:43:46.780Z,97931.35
2018-04-15T08:46:15.079Z,97933.01
2018-04-15T08:48:43.406Z,97932.92
2018-04-15T08:51:11.743Z,97922.09
2018-04-15T08:53:40.040Z,97919.70
2018-04-15T08:56:08.330Z,97914.73
2018-04-15T08:58:37.412Z,97921.88
2018-04-15T09:01:05.720Z,97916.23
2018-04-15T09:03:35.787Z,97920.58
2018-04-15T09:06:04.123Z,97915.13
2018-04-15T09:08:32.415Z,97917.22
2018-04-15T09:11:00.710Z,97907.14
2018-04-15T09:13:29.522Z,97905.05
2018-04-15T09:15:57.811Z,97910.50
2018-04-15T09:18:26.099Z,97914.86
2018-04-15T09:20:55.198Z,97904.13
2018-04-15T09:23:24.251Z,97905.52
2018-04-15T09:25:53.141Z,97899.66
2018-04-15T09:28:21.470Z,97896.69
2018-04-15T09:30:55.911Z,97896.45
2018-04-15T09:33:24.583Z,97895.20
2018-04-15T09:35:52.867Z,97898.14
2018-04-15T09:38:21.159Z,97894.12
2018-04-15T09:40:49.503Z,97893.91
2018-04-15T09:43:17.810Z,97893.27
2018-04-15T09:45:46.403Z,97882.78
2018-04-15T09:48:14.736Z,97876.55
2018-04-15T09:50:43.032Z,97875.48
2018-04-15T09:53:11.328Z,97876.71
2018-04-15T09:55:39.714Z,97870.05
2018-04-15T09:58:07.979Z,97864.98
2018-04-15T10:00:36.267Z,97862.45
2018-04-15T10:03:04.612Z,97855.59
2018-04-15T10:05:32.910Z,97854.20
2018-04-15T10:08:01.219Z,97854.44
2018-04-15T10:10:29.560Z,97854.17
2018-04-15T10:12:57.855Z,97849.06
2018-04-15T10:15:26.151Z,97850.03
2018-04-15T10:17:54.511Z,97847.12
2018-04-15T10:20:23.123Z,97845.50
2018-04-15T10:22:51.415Z,97840.48
2018-04-15T10:25:20.179Z,97831.66
2018-04-15T10:27:48.511Z,97824.38
2018-04-15T10:30:16.866Z,97819.97
2018-04-15T10:32:45.187Z,97820.59
2018-04-15T10:35:13.475Z,97817.61
2018-04-15T10:37:41.875Z,97816.20
2018-04-15T10:40:10.171Z,97812.86
2018-04-15T10:42:38.488Z,97818.00
2018-04-15T10:45:06.775Z,97813.09
2018-04-15T10:47:35.127Z,97816.35
2018-04-15T10:50:04.186Z,97820.52
2018-04-15T10:52:32.471Z,97819.27
2018-04-15T10:55:00.808Z,97812.41
2018-04-15T10:57:29.110Z,97809.76
2018-04-15T10:59:57.427Z,97802.05
2018-04-15T11:02:25.736Z,97807.27
2018-04-15T11:04:54.027Z,97796.66
2018-04-15T11:07:22.324Z,97796.00
2018-04-15T11:09:50.663Z,97798.36
2018-04-15T11:12:18.956Z,97794.68
2018-04-15T11:14:47.255Z,97803.59
2018-04-15T11:17:15.576Z,97800.79
2018-04-15T11:19:44.490Z,97788.81
2018-04-15T11:22:12.839Z,97791.54
2018-04-15T11:24:41.491Z,97784.98
2018-04-15T11:27:09.854Z,97775.27
2018-04-15T11:29:38.147Z,97777.16
2018-04-15T11:32:06.440Z,97775.67
2018-04-15T11:34:34.784Z,97774.91
2018-04-15T11:37:03.083Z,97766.51
2018-04-15T11:39:31.381Z,97767.69
2018-04-15T11:41:59.768Z,97760.69
2018-04-15T11:44:28.091Z,97759.28
2018-04-15T11:46:56.435Z,97756.52
2018-04-15T11:49:24.731Z,97751.86
2018-04-15T11:51:53.027Z,97743.16
2018-04-15T11:54:21.940Z,97742.91
2018-04-15T11:56:50.230Z,97735.94
2018-04-15T11:59:18.523Z,97730.05
2018-04-15T12:01:46.847Z,97733.63
2018-04-15T12:04:15.143Z,97728.86
2018-04-15T12:06:43.454Z,97718.91
2018-04-15T12:09:11.752Z,97726.31
2018-04-15T12:11:40.075Z,97726.66
2018-04-15T12:14:08.959Z,97726.30
2018-04-15T12:16:37.455Z,97724.63
2018-04-15T12:19:05.739Z,97723.17
2018-04-15T12:21:34.063Z,97718.16
2018-04-15T12:24:02.359Z,97726.66
2018-04-15T12:26:31.304Z,97719.56
2018-04-15T12:28:59.629Z,97710.34
2018-04-15T12:31:27.923Z,97705.78
2018-04-15T12:33:56.258Z,97700.58
2018-04-15T12:36:25.092Z,97700.18
2018-04-15T12:38:53.383Z,97696.95
2018-04-15T12:41:21.712Z,97693.97
2018-04-15T12:43:50.127Z,97676.52
2018-04-15T12:46:18.546Z,97666.55
2018-04-15T12:48:47.608Z,97662.27
2018-04-15T12:51:16.480Z,97655.87
2018-04-15T12:53:44.767Z,97651.31
2018-04-15T12:56:13.059Z,97655.01
2018-04-15T12:58:41.387Z,97641.78
2018-04-15T13:01:09.672Z,97622.08
2018-04-15T13:03:37.984Z,97625.00
2018-04-15T13:06:06.419Z,97626.55
2018-04-15T13:08:35.455Z,97628.03
2018-04-15T13:11:03.743Z,97626.02
2018-04-15T13:13:32.058Z,97621.73
2018-04-15T13:16:01.127Z,97616.05
2018-04-15T13:18:30.212Z,97615.80
2018-04-15T13:20:58.508Z,97618.69
2018-04-15T13:23:27.609Z,97617.81
2018-04-15T13:25:56.668Z,97613.28
2018-04-15T13:28:24.971Z,97610.34
2018-04-15T13:30:54.063Z,97609.99
2018-04-15T13:33:22.361Z,97610.95
2018-04-15T13:35:51.603Z,97609.51
2018-04-15T13:38:20.415Z,97621.23
2018-04-15T13:40:48.695Z,97621.05
2018-04-15T13:43:17.579Z,97622.27
2018-04-15T13:45:45.871Z,97627.00
2018-04-15T13:48:14.162Z,97619.62
2018-04-15T13:50:42.479Z,97628.12
2018-04-15T13:53:10.767Z,97618.01
2018-04-15T13:55:39.091Z,97610.80
2018-04-15T13:58:07.379Z,97606.02
2018-04-15T14:00:36.483Z,97595.78
2018-04-15T14:03:04.767Z,97586.49
2018-04-15T14:05:33.084Z,97581.77
2018-04-15T14:08:01.423Z,97586.53
2018-04-15T14:10:29.708Z,97582.42
2018-04-15T14:12:58.011Z,97586.17
2018-04-15T14:15:26.335Z,97582.02
2018-04-15T14:17:55.386Z,97576.70
2018-04-15T14:20:23.663Z,97572.34
2018-04-15T14:22:51.990Z,97566.61
2018-04-15T14:25:21.463Z,97555.00
2018-04-15T14:27:49.943Z,97559.81
2018-04-15T14:30:18.283Z,97560.43
2018-04-15T14:32:46.571Z,97560.14
2018-04-15T14:35:14.860Z,97556.07
2018-04-15T14:37:43.315Z,97557.41
2018-04-15T14:40:11.600Z,97552.81
2018-04-15T14:42:39.891Z,97555.47
2018-04-15T14:45:08.248Z,97553.75
2018-04-15T14:47:36.959Z,97553.73
2018-04-15T14:50:05.255Z,97546.85
2018-04-15T14:52:33.603Z,97547.88
2018-04-15T14:55:01.891Z,97537.39
2018-04-15T14:57:30.179Z,97539.99
2018-04-15T14:59:58.511Z,97531.37
2018-04-15T15:02:26.800Z,97531.28
2018-04-15T15:04:55.088Z,97527.45
2018-04-15T15:07:23.418Z,97521.39
2018-04-15T15:09:52.479Z,97518.27
2018-04-15T15:12:21.096Z,97521.98
2018-04-15T15:14:49.566Z,97516.37
2018-04-15T15:17:17.854Z,97517.63
2018-04-15T15:19:46.154Z,97514.83
2018-04-15T15:22:14.967Z,97512.30
2018-04-15T15:24:43.259Z,97507.77
2018-04-15T15:27:12.088Z,97510.66
2018-04-15T15:29:41.194Z,97509.69
2018-04-15T15:32:10.571Z,97502.97
2018-04-15T15:34:38.867Z,97511.31
2018-04-15T15:37:07.585Z,97507.89
2018-04-15T15:39:35.871Z,97505.91
2018-04-15T15:42:04.214Z,97499.13
2018-04-15T15:44:32.528Z,97494.55
2018-04-15T15:47:01.584Z,97492.87
2018-04-15T15:49:30.900Z,97491.92
2018-04-15T15:51:59.215Z,97492.01
2018-04-15T15:54:27.506Z,97502.94
2018-04-15T15:56:56.351Z,97503.97
2018-04-15T15:59:24.691Z,97513.77
2018-04-15T16:01:52.935Z,97514.67
2018-04-15T16:04:21.286Z,97507.05
2018-04-15T16:06:49.572Z,97513.63
2018-04-15T16:09:17.861Z,97511.53
2018-04-15T16:11:46.358Z,97511.20
2018-04-15T16:14:14.655Z,97506.76
2018-04-15T16:16:42.951Z,97508.08
2018-04-15T16:19:12.123Z,97512.05
2018-04-15T16:21:40.446Z,97512.48
2018-04-15T16:24:08.778Z,97511.57
2018-04-15T16:26:37.654Z,97509.64
2018-04-15T16:29:05.952Z,97501.66
2018-04-15T16:31:34.532Z,97512.92
2018-04-15T16:34:02.856Z,97506.06
2018-04-15T16:36:31.798Z,97512.38
2018-04-15T16:39:00.135Z,97508.27
2018-04-15T16:41:28.435Z,97503.17
2018-04-15T16:43:56.751Z,97507.58
2018-04-15T16:46:25.084Z,97511.31
2018-04-15T16:48:53.791Z,97510.86
2018-04-15T16:51:22.075Z,97509.77
2018-04-15T16:53:50.505Z,97515.55
2018-04-15T16:56:18.804Z,97512.02
2018-04-15T16:58:47.099Z,97517.86
2018-04-15T17:01:15.444Z,97518.91
2018-04-15T17:03:43.858Z,97522.23
2018-04-15T17:06:12.147Z,97532.84
2018-04-15T17:08:40.455Z,97530.56
2018-04-15T17:11:09.567Z,97538.44
2018-04-15T17:13:38.609Z,97537.03
2018-04-15T17:16:06.946Z,97536.88
2018-04-15T17:18:35.963Z,97536.52
2018-04-15T17:21:04.274Z,97541.30
2018-04-15T17:23:33.339Z,97540.52
2018-04-15T17:26:01.661Z,97540.22
2018-04-15T17:28:30.719Z,97555.33
2018-04-15T17:30:59.062Z,97559.33
2018-04-15T17:33:27.350Z,97558.02
2018-04-15T17:35:55.643Z,97559.83
2018-04-15T17:38:24.001Z,97560.55
2018-04-15T17:40:52.494Z,97559.65
2018-04-15T17:43:20.779Z,97564.39
2018-04-15T17:45:49.137Z,97568.38
2018-04-15T17:48:17.435Z,97570.02
2018-04-15T17:50:45.718Z,97567.16
2018-04-15T17:53:14.063Z,97570.11
2018-04-15T17:55:42.364Z,97572.52
2018-04-15T17:58:10.659Z,97571.34
2018-04-15T18:00:39.064Z,97579.59
2018-04-15T18:03:07.348Z,97580.69
2018-04-15T18:05:35.688Z,97590.25
2018-04-15T18:08:03.980Z,97581.97
2018-04-15T18:10:32.263Z,97588.22
2018-04-15T18:13:01.372Z,97593.86
2018-04-15T18:15:30.487Z,97591.80
2018-04-15T18:17:58.740Z,97588.77
2018-04-15T18:20:27.837Z,97587.48
2018-04-15T18:22:56.891Z,97587.77
2018-04-15T18:25:25.183Z,97594.22
2018-04-15T18:27:53.525Z,97583.14
2018-04-15T18:30:22.318Z,97587.44
2018-04-15T18:32:51.343Z,97582.63
2018-04-15T18:35:19.639Z,97588.38
2018-04-15T18:37:47.924Z,97594.41
2018-04-15T18:40:16.307Z,97586.70
2018-04-15T18:42:45.016Z,97586.20
2018-04-15T18:45:13.373Z,97590.45
2018-04-15T18:47:41.968Z,97584.02
2018-04-15T18:50:10.276Z,97586.16
2018-04-15T18:52:38.563Z,97591.23
2018-04-15T18:55:08.063Z,97596.71
2018-04-15T18:57:36.359Z,97597.94
2018-04-15T19:00:04.638Z,97600.17
2018-04-15T19:02:34.343Z,97596.99
2018-04-15T19:05:02.730Z,97599.18
2018-04-15T19:07:31.079Z,97598.37
2018-04-15T19:09:59.413Z,97595.41
2018-04-15T19:12:27.712Z,97603.16
2018-04-15T19:14:56.055Z,97598.71
2018-04-15T19:17:24.504Z,97605.77
2018-04-15T19:19:52.794Z,97611.30
2018-04-15T19:22:21.155Z,97608.47
2018-04-15T19:24:50.208Z,97608.38
2018-04-15T19:27:19.247Z,97610.16
2018-04-15T19:29:51.531Z,97613.56
2018-04-15T19:32:20.616Z,97617.94
2018-04-15T19:34:49.403Z,97622.67
2018-04-15T19:37:17.775Z,97628.55
2018-04-15T19:39:46.192Z,97632.13
2018-04-15T19:42:15.203Z,97633.31
2018-04-15T19:44:43.635Z,97631.93
2018-04-15T19:47:11.927Z,97638.08
2018-04-15T19:49:40.412Z,97638.66
2018-04-15T19:52:09.189Z,97640.23
2018-04-15T19:54:38.388Z,97632.40
2018-04-15T19:57:06.683Z,97638.03
2018-04-15T19:59:35.019Z,97632.91
2018-04-15T20:02:03.305Z,97637.83
2018-04-15T20:04:31.592Z,97633.86
2018-04-15T20:06:59.923Z,97635.66
2018-04-15T20:09:28.218Z,97634.98
2018-04-15T20:11:56.503Z,97636.36
2018-04-15T20:14:24.852Z,97637.94
2018-04-15T20:16:53.231Z,97636.02
2018-04-15T20:19:22.691Z,97634.19
2018-04-15T20:21:51.112Z,97640.20
2018-04-15T20:24:20.115Z,97635.05
2018-04-15T20:26:48.403Z,97634.50
2018-04-15T20:29:16.703Z,97639.28
2018-04-15T20:31:45.631Z,97637.84
2018-04-15T20:34:14.335Z,97641.15
2018-04-15T20:36:42.623Z,97639.61
2018-04-15T20:39:10.970Z,97638.46
2018-04-15T20:41:39.320Z,97641.75
2018-04-15T20:44:07.608Z,97642.41
2018-04-15T20:46:35.890Z,97633.11
2018-04-15T20:49:04.821Z,97633.41
2018-04-15T20:51:34.362Z,97634.05
2018-04-15T20:54:02.647Z,97638.75
2018-04-15T20:56:30.991Z,97628.60
2018-04-15T20:58:59.283Z,97627.76
2018-04-15T21:01:28.343Z,97635.25
2018-04-15T21:03:57.327Z,97630.34
2018-04-15T21:06:25.636Z,97633.68
2018-04-15T21:08:54.075Z,97630.77
2018-04-15T21:11:23.163Z,97635.80
2018-04-15T21:13:52.015Z,97626.41
2018-04-15T21:16:20.931Z,97627.38
2018-04-15T21:18:49.727Z,97626.12
2018-04-15T21:21:18.015Z,97624.20
2018-04-15T21:23:46.991Z,97615.09
2018-04-15T21:26:15.286Z,97622.31
2018-04-15T21:28:43.571Z,97624.03
2018-04-15T21:31:12.083Z,97621.63
2018-04-15T21:33:40.377Z,97616.41
2018-04-15T21:36:08.672Z,97617.78
2018-04-15T21:38:37.022Z,97613.50
2018-04-15T21:41:06.287Z,97612.86
2018-04-15T21:43:34.580Z,97618.52
2018-04-15T21:46:03.675Z,97616.98
2018-04-15T21:48:31.964Z,97622.52
2018-04-15T21:51:00.251Z,97623.01
2018-04-15T21:53:28.589Z,97619.45
2018-04-15T21:55:56.930Z,97621.98
2018-04-15T21:58:25.316Z,97622.23
2018-04-15T22:00:53.731Z,97627.84
2018-04-15T22:03:22.084Z,97629.43
2018-04-15T22:05:50.338Z,97642.05
2018-04-15T22:08:19.415Z,97638.85
2018-04-15T22:10:47.703Z,97639.70
2018-04-15T22:13:15.991Z,97643.52
2018-04-15T22:15:44.336Z,97638.63
2018-04-15T22:18:12.631Z,97635.12
2018-04-15T22:20:40.922Z,97636.66
2018-04-15T22:23:09.731Z,97638.16
2018-04-15T22:25:38.140Z,97640.04
2018-04-15T22:28:07.255Z,97639.36
2018-04-15T22:30:35.600Z,97636.61
2018-04-15T22:33:03.896Z,97634.89
2018-04-15T22:35:32.187Z,97629.85
2018-04-15T22:38:01.180Z,97631.69
2018-04-15T22:40:29.475Z,97628.05
2018-04-15T22:42:57.764Z,97634.61
2018-04-15T22:45:26.088Z,97636.06
2018-04-15T22:47:59.782Z,97637.60
2018-04-15T22:50:33.479Z,97640.13
2018-04-15T22:53:01.772Z,97641.78
2018-04-15T22:55:30.100Z,97643.38
2018-04-15T22:57:58.395Z,97639.52
2018-04-15T23:00:26.679Z,97636.44
2018-04-15T23:02:55.007Z,97632.03
2018-04-15T23:05:23.287Z,97632.28
2018-04-15T23:07:51.571Z,97630.95
2018-04-15T23:10:19.922Z,97633.09
2018-04-15T23:12:48.291Z,97639.51
2018-04-15T23:15:16.584Z,97632.80
2018-04-15T23:17:45.066Z,97633.69
2018-04-15T23:20:14.114Z,97643.31
2018-04-15T23:22:42.404Z,97643.34
2018-04-15T23:25:10.736Z,97656.27
2018-04-15T23:27:39.023Z,97666.91
2018-04-15T23:30:07.358Z,97667.64
2018-04-15T23:32:35.647Z,97665.63
2018-04-15T23:35:04.487Z,97662.14
2018-04-15T23:37:33.035Z,97671.47
2018-04-15T23:40:01.321Z,97668.72
2018-04-15T23:42:29.919Z,97670.42
2018-04-15T23:44:58.591Z,97687.67
2018-04-15T23:47:26.881Z,97689.17
2018-04-15T23:49:55.222Z,97686.89
2018-04-15T23:52:23.508Z,97683.73
2018-04-15T23:54:52.360Z,97681.77
2018-04-15T23:57:20.903Z,97681.44
2018-04-15T23:59:49.848Z,97682.11
